createdAt,value
2023-05-05T00:00:51.580Z,101086.69
2023-05-05T00:01:43.526Z,101082.31
2023-05-05T00:02:35.031Z,101080.53
2023-05-05T00:03:26.999Z,101086.63
2023-05-05T00:04:22.712Z,101074.38
2023-05-05T00:05:14.792Z,101080.50
2023-05-05T00:06:08.868Z,101076.13
2023-05-05T00:07:03.458Z,101079.59
2023-05-05T00:07:55.037Z,101077.84
2023-05-05T00:08:47.377Z,101084.84
2023-05-05T00:09:38.787Z,101082.22
2023-05-05T00:10:30.479Z,101085.69
2023-05-05T00:11:22.026Z,101087.44
2023-05-05T00:12:13.392Z,101084.88
2023-05-05T00:13:05.836Z,101082.28
2023-05-05T00:13:57.426Z,101091.88
2023-05-05T00:14:48.883Z,101089.31
2023-05-05T00:15:45.109Z,101090.16
2023-05-05T00:16:36.902Z,101086.66
2023-05-05T00:17:28.464Z,101084.06
2023-05-05T00:18:22.171Z,101087.56
2023-05-05T00:19:13.585Z,101084.97
2023-05-05T00:20:05.937Z,101083.22
2023-05-05T00:20:57.514Z,101079.72
2023-05-05T00:21:48.890Z,101080.63
2023-05-05T00:22:42.725Z,101072.81
2023-05-05T00:23:34.182Z,101067.59
2023-05-05T00:24:27.034Z,101064.94
2023-05-05T00:25:18.515Z,101064.06
2023-05-05T00:26:11.980Z,101059.69
2023-05-05T00:27:04.123Z,101063.19
2023-05-05T00:27:56.363Z,101058.00
2023-05-05T00:28:49.683Z,101057.06
2023-05-05T00:29:41.129Z,101055.31
2023-05-05T00:30:33.427Z,101056.16
2023-05-05T00:31:25.125Z,101060.53
2023-05-05T00:32:16.647Z,101060.47
2023-05-05T00:33:08.456Z,101057.81
2023-05-05T00:33:59.866Z,101062.19
2023-05-05T00:34:51.895Z,101072.63
2023-05-05T00:35:43.494Z,101066.50
2023-05-05T00:36:34.931Z,101072.59
2023-05-05T00:37:27.041Z,101066.41
2023-05-05T00:38:18.522Z,101061.13
2023-05-05T00:39:09.951Z,101060.28
2023-05-05T00:40:01.427Z,101062.81
2023-05-05T00:40:53.445Z,101065.47
2023-05-05T00:41:44.950Z,101063.66
2023-05-05T00:42:47.899Z,101070.66
2023-05-05T00:43:39.322Z,101059.28
2023-05-05T00:44:38.014Z,101063.66
2023-05-05T00:45:30.162Z,101065.41
2023-05-05T00:46:27.391Z,101061.03
2023-05-05T00:47:19.868Z,101068.03
2023-05-05T00:48:11.600Z,101065.34
2023-05-05T00:49:03.229Z,101071.44
2023-05-05T00:49:55.833Z,101070.50
2023-05-05T00:50:47.697Z,101067.00
2023-05-05T00:51:39.397Z,101070.47
2023-05-05T00:52:31.457Z,101081.78
2023-05-05T00:53:23.803Z,101073.94
2023-05-05T00:54:15.564Z,101072.19
2023-05-05T00:55:07.701Z,101072.19
2023-05-05T00:55:59.288Z,101070.44
2023-05-05T00:56:51.586Z,101068.69
2023-05-05T00:57:44.409Z,101065.19
2023-05-05T00:58:36.764Z,101068.72
2023-05-05T00:59:33.321Z,101068.69
2023-05-05T01:00:25.813Z,101067.78
2023-05-05T01:01:17.449Z,101068.59
2023-05-05T01:02:10.729Z,101065.09
2023-05-05T01:03:03.071Z,101067.66
2023-05-05T01:03:57.102Z,101064.16
2023-05-05T01:04:49.008Z,101065.88
2023-05-05T01:06:24.100Z,101076.25
2023-05-05T01:07:40.827Z,101071.75
2023-05-05T01:09:05.105Z,101067.34
2023-05-05T01:10:15.185Z,101071.69
2023-05-05T01:11:21.506Z,101071.53
2023-05-05T01:12:13.216Z,101075.00
2023-05-05T01:13:37.219Z,101073.22
2023-05-05T01:14:45.013Z,101073.22
2023-05-05T01:15:46.323Z,101070.63
2023-05-05T01:16:47.521Z,101073.16
2023-05-05T01:17:52.783Z,101069.63
2023-05-05T01:19:12.110Z,101080.84
2023-05-05T01:20:33.076Z,101077.38
2023-05-05T01:21:51.735Z,101072.94
2023-05-05T01:22:50.962Z,101077.25
2023-05-05T01:24:18.257Z,101068.47
2023-05-05T01:25:30.711Z,101068.47
2023-05-05T01:26:54.088Z,101065.78
2023-05-05T01:28:01.901Z,101064.91
2023-05-05T01:29:24.534Z,101069.28
2023-05-05T01:30:47.021Z,101069.22
2023-05-05T01:32:01.586Z,101077.81
2023-05-05T01:33:00.729Z,101067.34
2023-05-05T01:33:59.655Z,101079.53
2023-05-05T01:35:41.539Z,101072.50
2023-05-05T01:36:39.848Z,101078.59
2023-05-05T01:37:44.809Z,101071.56
2023-05-05T01:38:45.274Z,101061.09
2023-05-05T01:39:40.757Z,101068.91
2023-05-05T01:40:39.034Z,101072.34
2023-05-05T01:41:40.993Z,101068.94
2023-05-05T01:42:36.096Z,101075.88
2023-05-05T01:43:31.859Z,101071.50
2023-05-05T01:44:23.867Z,101077.56
2023-05-05T01:45:19.081Z,101080.19
2023-05-05T01:46:13.653Z,101080.19
2023-05-05T01:47:07.766Z,101077.63
2023-05-05T01:48:06.543Z,101081.09
2023-05-05T01:49:01.044Z,101084.50
2023-05-05T01:49:53.404Z,101080.13
2023-05-05T01:50:52.696Z,101082.59
2023-05-05T01:51:47.888Z,101084.25
2023-05-05T01:52:44.146Z,101080.75
2023-05-05T01:53:37.556Z,101085.00
2023-05-05T01:54:34.660Z,101081.47
2023-05-05T01:55:29.039Z,101096.25
2023-05-05T01:56:23.708Z,101088.34
2023-05-05T01:57:17.191Z,101089.19
2023-05-05T01:58:13.671Z,101094.34
2023-05-05T01:59:07.023Z,101092.63
2023-05-05T02:00:06.108Z,101099.66
2023-05-05T02:01:06.683Z,101094.44
2023-05-05T02:02:01.589Z,101084.84
2023-05-05T02:02:59.659Z,101091.81
2023-05-05T02:03:56.786Z,101092.63
2023-05-05T02:04:53.007Z,101097.94
2023-05-05T02:05:47.371Z,101093.59
2023-05-05T02:06:41.186Z,101089.09
2023-05-05T02:07:35.012Z,101097.78
2023-05-05T02:08:29.108Z,101099.53
2023-05-05T02:09:23.448Z,101099.44
2023-05-05T02:10:15.197Z,101102.00
2023-05-05T02:11:09.827Z,101101.97
2023-05-05T02:12:05.777Z,101103.63
2023-05-05T02:13:04.497Z,101102.72
2023-05-05T02:13:56.249Z,101107.09
2023-05-05T02:14:50.545Z,101108.84
2023-05-05T02:15:44.240Z,101108.84
2023-05-05T02:16:37.904Z,101107.91
2023-05-05T02:17:30.815Z,101100.91
2023-05-05T02:18:24.861Z,101114.03
2023-05-05T02:19:18.985Z,101105.31
2023-05-05T02:20:15.931Z,101117.47
2023-05-05T02:21:09.115Z,101111.16
2023-05-05T02:22:00.823Z,101117.22
2023-05-05T02:22:53.801Z,101114.59
2023-05-05T02:23:51.609Z,101113.63
2023-05-05T02:24:44.468Z,101116.19
2023-05-05T02:25:40.705Z,101112.84
2023-05-05T02:26:37.362Z,101111.94
2023-05-05T02:27:33.846Z,101107.56
2023-05-05T02:28:38.673Z,101112.00
2023-05-05T02:29:35.480Z,101108.53
2023-05-05T02:30:32.333Z,101108.59
2023-05-05T02:31:27.694Z,101114.63
2023-05-05T02:32:31.889Z,101112.91
2023-05-05T02:33:31.089Z,101115.59
2023-05-05T02:34:27.592Z,101122.59
2023-05-05T02:35:24.324Z,101113.75
2023-05-05T02:36:26.164Z,101114.63
2023-05-05T02:37:27.500Z,101119.03
2023-05-05T02:38:29.236Z,101121.53
2023-05-05T02:39:38.255Z,101121.53
2023-05-05T02:40:39.153Z,101120.59
2023-05-05T02:41:34.570Z,101121.34
2023-05-05T02:42:36.455Z,101123.16
2023-05-05T02:43:33.289Z,101133.38
2023-05-05T02:44:27.847Z,101130.88
2023-05-05T02:45:23.207Z,101129.16
2023-05-05T02:46:17.960Z,101135.09
2023-05-05T02:47:11.841Z,101131.66
2023-05-05T02:48:04.254Z,101136.91
2023-05-05T02:48:59.722Z,101135.25
2023-05-05T02:49:51.409Z,101139.47
2023-05-05T02:50:42.947Z,101134.22
2023-05-05T02:51:43.329Z,101134.13
2023-05-05T02:52:43.424Z,101140.13
2023-05-05T02:53:35.986Z,101135.72
2023-05-05T02:54:28.673Z,101136.59
2023-05-05T02:55:20.320Z,101127.75
2023-05-05T02:56:45.613Z,101137.31
2023-05-05T02:57:42.675Z,101138.06
2023-05-05T02:58:46.061Z,101144.19
2023-05-05T02:59:56.584Z,101140.63
2023-05-05T03:01:06.046Z,101136.22
2023-05-05T03:02:28.507Z,101136.09
2023-05-05T03:03:34.304Z,101139.53
2023-05-05T03:04:39.585Z,101142.16
2023-05-05T03:05:44.999Z,101137.88
2023-05-05T03:06:41.478Z,101138.75
2023-05-05T03:07:42.573Z,101137.00
2023-05-05T03:08:43.966Z,101139.53
2023-05-05T03:09:45.527Z,101143.88
2023-05-05T03:10:51.979Z,101142.16
2023-05-05T03:12:06.183Z,101138.72
2023-05-05T03:13:10.631Z,101144.06
2023-05-05T03:14:13.144Z,101145.06
2023-05-05T03:15:10.200Z,101140.00
2023-05-05T03:16:06.845Z,101144.44
2023-05-05T03:17:01.730Z,101147.19
2023-05-05T03:17:54.338Z,101144.56
2023-05-05T03:18:49.812Z,101149.03
2023-05-05T03:19:44.130Z,101149.91
2023-05-05T03:20:38.977Z,101147.38
2023-05-05T03:21:39.357Z,101148.34
2023-05-05T03:22:36.113Z,101144.94
2023-05-05T03:23:32.542Z,101148.47
2023-05-05T03:24:24.857Z,101144.22
2023-05-05T03:25:47.368Z,101140.00
2023-05-05T03:26:53.345Z,101139.22
2023-05-05T03:27:47.500Z,101137.50
2023-05-05T03:28:42.903Z,101138.44
2023-05-05T03:29:41.860Z,101136.72
2023-05-05T03:30:38.038Z,101133.19
2023-05-05T03:31:29.687Z,101135.00
2023-05-05T03:32:24.365Z,101132.41
2023-05-05T03:33:18.781Z,101136.72
2023-05-05T03:34:10.378Z,101135.81
2023-05-05T03:35:08.400Z,101137.44
2023-05-05T03:35:59.882Z,101140.97
2023-05-05T03:36:51.380Z,101132.28
2023-05-05T03:37:44.989Z,101139.22
2023-05-05T03:38:37.789Z,101141.94
2023-05-05T03:39:29.493Z,101136.72
2023-05-05T03:40:36.184Z,101136.72
2023-05-05T03:41:32.262Z,101140.16
2023-05-05T03:42:24.338Z,101137.50
2023-05-05T03:43:15.985Z,101142.72
2023-05-05T03:44:07.843Z,101139.22
2023-05-05T03:45:01.565Z,101140.09
2023-05-05T03:45:55.535Z,101140.00
2023-05-05T03:46:47.218Z,101136.34
2023-05-05T03:47:44.019Z,101138.81
2023-05-05T03:48:39.853Z,101144.03
2023-05-05T03:49:32.092Z,101141.38
2023-05-05T03:50:24.348Z,101139.66
2023-05-05T03:51:16.357Z,101140.53
2023-05-05T03:52:15.455Z,101142.19
2023-05-05T03:53:08.363Z,101141.28
2023-05-05T03:53:59.762Z,101141.28
2023-05-05T03:54:51.865Z,101143.78
2023-05-05T03:55:43.527Z,101137.66
2023-05-05T03:56:35.886Z,101137.72
2023-05-05T03:57:27.401Z,101138.56
2023-05-05T03:58:18.848Z,101144.59
2023-05-05T03:59:10.527Z,101141.06
2023-05-05T04:00:02.008Z,101147.97
2023-05-05T04:00:54.977Z,101145.31
2023-05-05T04:01:49.056Z,101145.34
2023-05-05T04:02:45.920Z,101144.44
2023-05-05T04:03:39.643Z,101150.50
2023-05-05T04:04:31.179Z,101149.53
2023-05-05T04:05:23.329Z,101150.38
2023-05-05T04:06:14.905Z,101153.78
2023-05-05T04:07:06.464Z,101149.34
2023-05-05T04:07:58.443Z,101148.44
2023-05-05T04:08:50.502Z,101152.72
2023-05-05T04:09:44.582Z,101150.13
2023-05-05T04:10:36.870Z,101149.22
2023-05-05T04:11:29.765Z,101151.81
2023-05-05T04:12:22.028Z,101153.59
2023-05-05T04:13:13.695Z,101146.78
2023-05-05T04:14:07.818Z,101152.81
2023-05-05T04:14:59.285Z,101147.59
2023-05-05T04:15:50.863Z,101151.88
2023-05-05T04:16:46.426Z,101155.41
2023-05-05T04:17:40.275Z,101165.00
2023-05-05T04:18:34.458Z,101160.63
2023-05-05T04:19:26.091Z,101157.16
2023-05-05T04:20:19.922Z,101163.22
2023-05-05T04:21:11.316Z,101164.16
2023-05-05T04:22:03.315Z,101162.44
2023-05-05T04:22:55.220Z,101162.50
2023-05-05T04:23:47.805Z,101172.88
2023-05-05T04:24:39.558Z,101174.59
2023-05-05T04:25:31.559Z,101176.44
2023-05-05T04:26:23.289Z,101177.28
2023-05-05T04:27:14.822Z,101175.56
2023-05-05T04:28:06.371Z,101178.28
2023-05-05T04:28:57.907Z,101174.91
2023-05-05T04:29:49.392Z,101173.22
2023-05-05T04:30:40.922Z,101172.41
2023-05-05T04:31:32.433Z,101175.94
2023-05-05T04:32:24.442Z,101181.28
2023-05-05T04:33:16.473Z,101174.38
2023-05-05T04:34:08.100Z,101178.78
2023-05-05T04:34:59.605Z,101184.00
2023-05-05T04:35:51.335Z,101175.28
2023-05-05T04:36:44.005Z,101182.31
2023-05-05T04:37:35.673Z,101189.28
2023-05-05T04:38:27.653Z,101180.63
2023-05-05T04:39:19.796Z,101194.59
2023-05-05T04:40:11.973Z,101191.19
2023-05-05T04:41:10.613Z,101190.28
2023-05-05T04:42:03.758Z,101186.75
2023-05-05T04:42:55.258Z,101182.38
2023-05-05T04:43:47.042Z,101185.06
2023-05-05T04:44:41.906Z,101188.75
2023-05-05T04:45:33.466Z,101183.53
2023-05-05T04:46:27.249Z,101187.09
2023-05-05T04:47:18.910Z,101191.47
2023-05-05T04:48:10.630Z,101188.88
2023-05-05T04:49:04.962Z,101188.00
2023-05-05T04:49:57.350Z,101183.69
2023-05-05T04:50:48.853Z,101191.53
2023-05-05T04:51:43.647Z,101186.38
2023-05-05T04:52:35.250Z,101189.13
2023-05-05T04:53:26.683Z,101196.09
2023-05-05T04:54:19.002Z,101194.44
2023-05-05T04:55:11.468Z,101190.19
2023-05-05T04:56:03.381Z,101193.66
2023-05-05T04:56:55.620Z,101196.25
2023-05-05T04:57:47.061Z,101192.00
2023-05-05T04:58:38.488Z,101192.00
2023-05-05T04:59:31.231Z,101186.78
2023-05-05T05:00:23.260Z,101188.59
2023-05-05T05:01:14.679Z,101189.59
2023-05-05T05:02:06.378Z,101191.34
2023-05-05T05:02:58.077Z,101189.59
2023-05-05T05:03:49.723Z,101188.78
2023-05-05T05:04:41.366Z,101183.56
2023-05-05T05:05:36.166Z,101184.50
2023-05-05T05:06:29.264Z,101188.94
2023-05-05T05:07:21.201Z,101189.84
2023-05-05T05:08:12.668Z,101196.03
2023-05-05T05:09:04.789Z,101207.44
2023-05-05T05:09:56.578Z,101201.44
2023-05-05T05:10:48.096Z,101200.53
2023-05-05T05:11:39.549Z,101198.78
2023-05-05T05:12:31.119Z,101204.03
2023-05-05T05:13:22.784Z,101206.72
2023-05-05T05:14:15.441Z,101204.19
2023-05-05T05:15:07.933Z,101204.25
2023-05-05T05:16:00.865Z,101203.41
2023-05-05T05:16:52.864Z,101201.75
2023-05-05T05:17:46.786Z,101208.84
2023-05-05T05:18:38.326Z,101203.69
2023-05-05T05:19:29.831Z,101208.13
2023-05-05T05:20:24.392Z,101210.75
2023-05-05T05:21:15.858Z,101208.19
2023-05-05T05:22:07.312Z,101211.81
2023-05-05T05:23:02.484Z,101212.72
2023-05-05T05:23:55.486Z,101208.38
2023-05-05T05:24:47.006Z,101218.94
2023-05-05T05:25:42.783Z,101212.03
2023-05-05T05:26:37.239Z,101210.38
2023-05-05T05:27:30.978Z,101213.00
2023-05-05T05:28:25.224Z,101215.66
2023-05-05T05:29:21.720Z,101219.22
2023-05-05T05:30:13.866Z,101215.78
2023-05-05T05:31:05.484Z,101222.78
2023-05-05T05:31:57.254Z,101220.16
2023-05-05T05:32:48.784Z,101222.91
2023-05-05T05:33:40.970Z,101216.81
2023-05-05T05:34:33.683Z,101215.97
2023-05-05T05:35:25.412Z,101216.88
2023-05-05T05:36:16.847Z,101219.50
2023-05-05T05:37:08.628Z,101223.06
2023-05-05T05:38:00.624Z,101220.44
2023-05-05T05:38:55.036Z,101219.66
2023-05-05T05:39:52.266Z,101214.47
2023-05-05T05:40:44.909Z,101221.47
2023-05-05T05:41:36.532Z,101216.31
2023-05-05T05:42:28.439Z,101221.59
2023-05-05T05:43:22.658Z,101219.06
2023-05-05T05:44:14.766Z,101222.63
2023-05-05T05:45:07.413Z,101217.38
2023-05-05T05:45:59.020Z,101219.19
2023-05-05T05:46:53.124Z,101220.06
2023-05-05T05:47:44.700Z,101212.31
2023-05-05T05:48:36.202Z,101216.72
2023-05-05T05:49:28.190Z,101219.34
2023-05-05T05:50:21.061Z,101212.41
2023-05-05T05:51:12.496Z,101219.41
2023-05-05T05:52:04.473Z,101216.00
2023-05-05T05:52:56.143Z,101216.06
2023-05-05T05:53:47.902Z,101220.47
2023-05-05T05:54:39.373Z,101220.47
2023-05-05T05:55:31.007Z,101212.66
2023-05-05T05:56:23.052Z,101211.81
2023-05-05T05:57:15.354Z,101205.72
2023-05-05T05:58:07.038Z,101210.09
2023-05-05T05:58:58.515Z,101220.59
2023-05-05T05:59:51.713Z,101212.75
2023-05-05T06:00:43.418Z,101218.84
2023-05-05T06:01:36.179Z,101224.13
2023-05-05T06:02:29.089Z,101217.19
2023-05-05T06:03:20.909Z,101217.13
2023-05-05T06:04:13.135Z,101210.13
2023-05-05T06:05:05.343Z,101213.63
2023-05-05T06:05:58.848Z,101213.63
2023-05-05T06:06:50.757Z,101213.66
2023-05-05T06:07:42.371Z,101218.09
2023-05-05T06:08:34.505Z,101215.47
2023-05-05T06:09:26.171Z,101219.81
2023-05-05T06:10:27.836Z,101220.69
2023-05-05T06:11:25.741Z,101211.13
2023-05-05T06:12:17.307Z,101224.22
2023-05-05T06:13:11.617Z,101225.97
2023-05-05T06:14:06.926Z,101225.97
2023-05-05T06:14:58.360Z,101225.13
2023-05-05T06:15:50.212Z,101226.00
2023-05-05T06:16:42.581Z,101232.13
2023-05-05T06:17:40.912Z,101236.53
2023-05-05T06:18:32.346Z,101233.00
2023-05-05T06:19:23.865Z,101228.63
2023-05-05T06:20:15.573Z,101234.75
2023-05-05T06:21:07.074Z,101235.59
2023-05-05T06:21:58.559Z,101229.47
2023-05-05T06:22:50.054Z,101237.31
2023-05-05T06:23:42.134Z,101232.09
2023-05-05T06:24:33.637Z,101233.84
2023-05-05T06:25:26.146Z,101237.31
2023-05-05T06:26:17.918Z,101242.63
2023-05-05T06:27:09.312Z,101239.16
2023-05-05T06:28:00.782Z,101232.16
2023-05-05T06:28:52.221Z,101242.66
2023-05-05T06:29:43.638Z,101239.19
2023-05-05T06:30:35.055Z,101239.25
2023-05-05T06:31:26.642Z,101233.16
2023-05-05T06:32:20.218Z,101241.06
2023-05-05T06:33:11.619Z,101238.50
2023-05-05T06:34:03.061Z,101237.66
2023-05-05T06:34:57.547Z,101237.69
2023-05-05T06:35:51.170Z,101246.44
2023-05-05T06:36:42.722Z,101242.13
2023-05-05T06:37:37.018Z,101243.91
2023-05-05T06:38:28.388Z,101238.66
2023-05-05T06:39:19.892Z,101240.47
2023-05-05T06:40:11.870Z,101239.63
2023-05-05T06:41:03.700Z,101249.28
2023-05-05T06:41:55.082Z,101244.91
2023-05-05T06:42:49.674Z,101246.72
2023-05-05T06:43:46.840Z,101239.75
2023-05-05T06:44:41.340Z,101237.09
2023-05-05T06:45:33.043Z,101242.44
2023-05-05T06:46:24.628Z,101240.69
2023-05-05T06:47:16.111Z,101240.69
2023-05-05T06:48:08.870Z,101239.88
2023-05-05T06:49:00.559Z,101244.28
2023-05-05T06:49:52.213Z,101246.00
2023-05-05T06:50:43.633Z,101245.19
2023-05-05T06:51:35.474Z,101232.94
2023-05-05T06:52:26.947Z,101233.81
2023-05-05T06:53:18.406Z,101240.84
2023-05-05T06:54:09.795Z,101238.22
2023-05-05T06:55:01.406Z,101233.00
2023-05-05T06:55:52.844Z,101235.66
2023-05-05T06:56:46.519Z,101235.69
2023-05-05T06:57:40.388Z,101241.84
2023-05-05T06:58:31.821Z,101239.22
2023-05-05T06:59:23.251Z,101236.59
2023-05-05T07:00:16.776Z,101234.91
2023-05-05T07:01:10.353Z,101234.97
2023-05-05T07:02:01.876Z,101237.63
2023-05-05T07:02:53.707Z,101240.25
2023-05-05T07:03:45.143Z,101239.41
2023-05-05T07:04:37.079Z,101240.31
2023-05-05T07:05:28.584Z,101240.41
2023-05-05T07:06:19.975Z,101244.81
2023-05-05T07:07:11.809Z,101246.59
2023-05-05T07:08:03.340Z,101253.63
2023-05-05T07:08:54.805Z,101245.81
2023-05-05T07:09:48.613Z,101246.69
2023-05-05T07:10:40.367Z,101243.22
2023-05-05T07:11:31.835Z,101247.59
2023-05-05T07:12:23.364Z,101256.44
2023-05-05T07:13:17.568Z,101252.94
2023-05-05T07:14:10.314Z,101253.81
2023-05-05T07:15:12.146Z,101252.09
2023-05-05T07:16:07.359Z,101264.41
2023-05-05T07:16:58.876Z,101261.78
2023-05-05T07:17:51.162Z,101259.19
2023-05-05T07:18:42.779Z,101255.69
2023-05-05T07:19:34.495Z,101260.09
2023-05-05T07:20:26.153Z,101253.09
2023-05-05T07:21:17.625Z,101261.00
2023-05-05T07:22:08.975Z,101249.59
2023-05-05T07:23:00.738Z,101259.25
2023-05-05T07:23:52.353Z,101256.63
2023-05-05T07:24:43.806Z,101252.28
2023-05-05T07:25:35.914Z,101256.66
2023-05-05T07:26:32.632Z,101254.00
2023-05-05T07:27:24.440Z,101247.88
2023-05-05T07:28:16.537Z,101254.91
2023-05-05T07:29:08.048Z,101265.41
2023-05-05T07:30:02.811Z,101257.53
2023-05-05T07:30:56.153Z,101262.78
2023-05-05T07:31:47.588Z,101264.53
2023-05-05T07:32:39.017Z,101266.31
2023-05-05T07:33:30.438Z,101263.69
2023-05-05T07:34:22.100Z,101266.31
2023-05-05T07:35:13.708Z,101269.81
2023-05-05T07:36:05.482Z,101267.19
2023-05-05T07:36:56.985Z,101268.06
2023-05-05T07:37:48.552Z,101269.81
2023-05-05T07:38:40.034Z,101270.69
2023-05-05T07:39:32.156Z,101265.41
2023-05-05T07:40:26.822Z,101263.66
2023-05-05T07:41:19.282Z,101267.19
2023-05-05T07:42:10.936Z,101269.81
2023-05-05T07:43:03.066Z,101270.69
2023-05-05T07:43:54.560Z,101267.19
2023-05-05T07:44:46.003Z,101275.94
2023-05-05T07:45:37.405Z,101277.72
2023-05-05T07:46:31.306Z,101273.31
2023-05-05T07:47:22.872Z,101273.28
2023-05-05T07:48:16.573Z,101272.44
2023-05-05T07:49:08.029Z,101268.91
2023-05-05T07:50:01.073Z,101271.56
2023-05-05T07:50:53.008Z,101261.91
2023-05-05T07:51:44.916Z,101264.53
2023-05-05T07:52:46.759Z,101264.53
2023-05-05T07:53:41.323Z,101268.03
2023-05-05T07:54:32.863Z,101263.66
2023-05-05T07:55:24.377Z,101272.44
2023-05-05T07:56:15.861Z,101270.66
2023-05-05T07:57:07.253Z,101261.91
2023-05-05T07:57:58.739Z,101265.41
2023-05-05T07:58:50.535Z,101265.38
2023-05-05T07:59:43.822Z,101264.50
2023-05-05T08:00:35.678Z,101264.50
2023-05-05T08:01:27.116Z,101264.50
2023-05-05T08:02:21.573Z,101262.75
2023-05-05T08:03:13.127Z,101265.38
2023-05-05T08:04:07.552Z,101262.78
2023-05-05T08:05:00.358Z,101262.78
2023-05-05T08:05:54.638Z,101261.88
2023-05-05T08:06:46.344Z,101259.25
2023-05-05T08:07:41.104Z,101261.00
2023-05-05T08:08:32.817Z,101259.25
2023-05-05T08:09:25.433Z,101257.47
2023-05-05T08:10:16.931Z,101263.59
2023-05-05T08:11:08.387Z,101257.44
2023-05-05T08:12:01.310Z,101258.31
2023-05-05T08:12:55.264Z,101264.44
2023-05-05T08:13:46.847Z,101264.41
2023-05-05T08:14:40.444Z,101261.78
2023-05-05T08:15:31.917Z,101271.44
2023-05-05T08:16:23.319Z,101268.84
2023-05-05T08:17:15.077Z,101267.97
2023-05-05T08:18:06.663Z,101267.06
2023-05-05T08:18:58.214Z,101264.41
2023-05-05T08:19:51.860Z,101261.75
2023-05-05T08:20:43.223Z,101261.78
2023-05-05T08:21:34.649Z,101262.69
2023-05-05T08:22:26.281Z,101266.16
2023-05-05T08:23:17.663Z,101264.41
2023-05-05T08:24:09.151Z,101265.31
2023-05-05T08:25:00.641Z,101267.06
2023-05-05T08:25:52.295Z,101270.56
2023-05-05T08:26:43.734Z,101267.94
2023-05-05T08:27:35.389Z,101263.53
2023-05-05T08:28:26.823Z,101267.00
2023-05-05T08:29:18.280Z,101271.41
2023-05-05T08:30:10.225Z,101276.69
2023-05-05T08:31:01.992Z,101264.38
2023-05-05T08:31:53.473Z,101272.25
2023-05-05T08:32:44.999Z,101271.38
2023-05-05T08:33:36.621Z,101266.09
2023-05-05T08:34:28.060Z,101265.16
2023-05-05T08:35:22.262Z,101269.50
2023-05-05T08:36:16.110Z,101270.38
2023-05-05T08:37:09.607Z,101264.19
2023-05-05T08:38:01.002Z,101268.56
2023-05-05T08:38:55.282Z,101265.88
2023-05-05T08:39:49.268Z,101267.63
2023-05-05T08:40:41.587Z,101265.88
2023-05-05T08:41:33.084Z,101266.72
2023-05-05T08:42:36.136Z,101257.00
2023-05-05T08:43:29.781Z,101273.66
2023-05-05T08:44:21.825Z,101263.03
2023-05-05T08:45:13.343Z,101271.84
2023-05-05T08:46:05.459Z,101263.09
2023-05-05T08:47:01.602Z,101273.66
2023-05-05T08:47:59.238Z,101265.72
2023-05-05T08:48:55.446Z,101265.72
2023-05-05T08:49:47.780Z,101266.59
2023-05-05T08:50:40.460Z,101264.00
2023-05-05T08:51:42.737Z,101263.09
2023-05-05T08:52:44.185Z,101262.22
2023-05-05T08:54:05.089Z,101264.88
2023-05-05T08:55:14.451Z,101266.66
2023-05-05T08:56:08.020Z,101260.47
2023-05-05T08:57:57.124Z,101262.22
2023-05-05T08:58:28.806Z,101262.28
2023-05-05T08:59:37.904Z,101264.97
2023-05-05T09:00:46.368Z,101269.38
2023-05-05T09:01:38.186Z,101263.25
2023-05-05T09:02:31.179Z,101261.56
2023-05-05T09:03:23.507Z,101263.34
2023-05-05T09:04:15.925Z,101268.59
2023-05-05T09:05:08.411Z,101270.34
2023-05-05T09:06:00.012Z,101265.06
2023-05-05T09:06:51.582Z,101272.97
2023-05-05T09:07:44.250Z,101272.97
2023-05-05T09:08:38.369Z,101274.69
2023-05-05T09:09:30.686Z,101272.06
2023-05-05T09:10:22.143Z,101279.06
2023-05-05T09:11:13.687Z,101279.94
2023-05-05T09:12:05.668Z,101277.28
2023-05-05T09:12:57.375Z,101278.13
2023-05-05T09:13:49.709Z,101273.63
2023-05-05T09:14:41.222Z,101275.22
2023-05-05T09:15:33.149Z,101282.16
2023-05-05T09:16:24.739Z,101277.72
2023-05-05T09:17:25.871Z,101279.47
2023-05-05T09:18:19.816Z,101268.94
2023-05-05T09:19:12.565Z,101270.66
2023-05-05T09:20:09.440Z,101274.19
2023-05-05T09:21:22.579Z,101263.59
2023-05-05T09:22:14.092Z,101268.88
2023-05-05T09:23:14.630Z,101280.31
2023-05-05T09:24:11.627Z,101268.84
2023-05-05T09:25:07.482Z,101267.13
2023-05-05T09:26:05.132Z,101274.22
2023-05-05T09:26:59.092Z,101272.53
2023-05-05T09:27:50.637Z,101272.53
2023-05-05T09:28:52.617Z,101267.22
2023-05-05T09:29:49.850Z,101266.31
2023-05-05T09:30:43.827Z,101264.56
2023-05-05T09:31:37.048Z,101274.28
2023-05-05T09:32:30.591Z,101275.19
2023-05-05T09:33:31.663Z,101271.69
2023-05-05T09:34:23.616Z,101271.69
2023-05-05T09:35:16.932Z,101271.63
2023-05-05T09:36:08.620Z,101269.78
2023-05-05T09:37:00.043Z,101276.78
2023-05-05T09:37:51.489Z,101262.69
2023-05-05T09:39:02.839Z,101267.09
2023-05-05T09:39:55.452Z,101264.44
2023-05-05T09:40:49.469Z,101263.59
2023-05-05T09:41:44.222Z,101266.28
2023-05-05T09:42:39.341Z,101261.88
2023-05-05T09:43:49.402Z,101253.09
2023-05-05T09:44:41.139Z,101257.56
2023-05-05T09:45:32.591Z,101262.00
2023-05-05T09:46:24.310Z,101254.09
2023-05-05T09:47:28.557Z,101252.38
2023-05-05T09:48:30.076Z,101242.63
2023-05-05T09:49:26.766Z,101249.69
2023-05-05T09:50:19.170Z,101249.75
2023-05-05T09:51:11.233Z,101248.88
2023-05-05T09:52:16.022Z,101248.91
2023-05-05T09:53:09.348Z,101253.34
2023-05-05T09:54:00.971Z,101257.72
2023-05-05T09:54:57.073Z,101262.13
2023-05-05T09:56:00.493Z,101263.88
2023-05-05T09:56:52.625Z,101256.78
2023-05-05T09:57:44.151Z,101257.59
2023-05-05T09:58:36.277Z,101257.47
2023-05-05T09:59:27.807Z,101255.59
2023-05-05T10:00:20.290Z,101251.97
2023-05-05T10:01:24.333Z,101246.59
2023-05-05T10:02:16.163Z,101250.03
2023-05-05T10:03:07.718Z,101249.03
2023-05-05T10:03:59.187Z,101244.69
2023-05-05T10:04:50.631Z,101245.53
2023-05-05T10:05:50.614Z,101234.13
2023-05-05T10:06:48.100Z,101240.28
2023-05-05T10:07:42.198Z,101239.38
2023-05-05T10:08:34.224Z,101236.75
2023-05-05T10:09:27.270Z,101240.31
2023-05-05T10:10:19.154Z,101244.00
2023-05-05T10:11:10.956Z,101245.88
2023-05-05T10:12:04.926Z,101258.25
2023-05-05T10:12:58.525Z,101250.38
2023-05-05T10:13:50.220Z,101249.47
2023-05-05T10:14:43.296Z,101245.94
2023-05-05T10:15:37.014Z,101245.91
2023-05-05T10:16:31.271Z,101241.56
2023-05-05T10:17:23.513Z,101228.22
2023-05-05T10:18:21.068Z,101230.81
2023-05-05T10:19:16.452Z,101230.75
2023-05-05T10:20:12.791Z,101228.09
2023-05-05T10:21:04.666Z,101227.16
2023-05-05T10:22:03.919Z,101223.63
2023-05-05T10:22:59.750Z,101233.13
2023-05-05T10:24:03.125Z,101228.59
2023-05-05T10:25:03.513Z,101223.22
2023-05-05T10:26:03.570Z,101221.47